<?xml version="1.0" encoding="UTF-8"?>
<gpx version="1.1" creator="https://www.youtrack.es" xsi:schemaLocation="http://www.topografix.com/GPX/1/1 http://www.topografix.com/GPX/1/1/gpx.xsd http://www.garmin.com/xmlschemas/GpxExtensions/v3 http://www.garmin.com/xmlschemas/GpxExtensionsv3.xsd http://www.garmin.com/xmlschemas/TrackPointExtension/v1 http://www.garmin.com/xmlschemas/TrackPointExtensionv1.xsd" xmlns:gpxtpx="http://www.garmin.com/xmlschemas/TrackPointExtension/v1" xmlns:gpxx="http://www.garmin.com/xmlschemas/GpxExtensions/v3" xmlns:xsi="http://www.w3.org/2001/XMLSchema-instance">
  <metadata>
    <link href="https://www.youtrack.es">
      <text>YouTrack.es</text>
    </link>
    <time>2026-05-08T02:38:33Z</time>
  </metadata>
  <trk>
    <src>https://www.youtrack.es</src>
    <link href="https://www.youtrack.es/ruta/18643-5-enero">
      <text>YouTrack.es</text>
    </link>
    <trkseg>
      <trkpt lat="39.36199" lon="-0.45625">
        <time>2021-01-05 06:01:17</time>
      </trkpt>
      <trkpt lat="39.36205" lon="-0.45616">
        <time>2021-01-05 06:01:21</time>
      </trkpt>
      <trkpt lat="39.36208" lon="-0.45614">
        <time>2021-01-05 06:01:22</time>
      </trkpt>
      <trkpt lat="39.36216" lon="-0.45609">
        <time>2021-01-05 06:01:25</time>
      </trkpt>
      <trkpt lat="39.36229" lon="-0.45596">
        <time>2021-01-05 06:01:30</time>
      </trkpt>
      <trkpt lat="39.36238" lon="-0.45585">
        <time>2021-01-05 06:01:35</time>
      </trkpt>
      <trkpt lat="39.36256" lon="-0.45573">
        <time>2021-01-05 06:01:42</time>
      </trkpt>
      <trkpt lat="39.36258" lon="-0.4557">
        <time>2021-01-05 06:01:43</time>
      </trkpt>
      <trkpt lat="39.36267" lon="-0.45558">
        <time>2021-01-05 06:01:47</time>
      </trkpt>
      <trkpt lat="39.36271" lon="-0.45545">
        <time>2021-01-05 06:01:51</time>
      </trkpt>
      <trkpt lat="39.3627" lon="-0.45542">
        <time>2021-01-05 06:01:52</time>
      </trkpt>
      <trkpt lat="39.36259" lon="-0.45525">
        <time>2021-01-05 06:01:57</time>
      </trkpt>
      <trkpt lat="39.36246" lon="-0.45511">
        <time>2021-01-05 06:02:02</time>
      </trkpt>
      <trkpt lat="39.36245" lon="-0.45507">
        <time>2021-01-05 06:02:03</time>
      </trkpt>
      <trkpt lat="39.36246" lon="-0.455">
        <time>2021-01-05 06:02:05</time>
      </trkpt>
      <trkpt lat="39.36257" lon="-0.45481">
        <time>2021-01-05 06:02:11</time>
      </trkpt>
      <trkpt lat="39.36259" lon="-0.45478">
        <time>2021-01-05 06:02:12</time>
      </trkpt>
      <trkpt lat="39.36273" lon="-0.45464">
        <time>2021-01-05 06:02:18</time>
      </trkpt>
      <trkpt lat="39.36288" lon="-0.4545">
        <time>2021-01-05 06:02:24</time>
      </trkpt>
      <trkpt lat="39.3629" lon="-0.45448">
        <time>2021-01-05 06:02:25</time>
      </trkpt>
      <trkpt lat="39.36305" lon="-0.45431">
        <time>2021-01-05 06:02:32</time>
      </trkpt>
      <trkpt lat="39.3632" lon="-0.45415">
        <time>2021-01-05 06:02:39</time>
      </trkpt>
      <trkpt lat="39.36327" lon="-0.45408">
        <time>2021-01-05 06:02:42</time>
      </trkpt>
      <trkpt lat="39.36343" lon="-0.45396">
        <time>2021-01-05 06:02:49</time>
      </trkpt>
      <trkpt lat="39.3635" lon="-0.4539">
        <time>2021-01-05 06:02:52</time>
      </trkpt>
      <trkpt lat="39.36369" lon="-0.45381">
        <time>2021-01-05 06:02:59</time>
      </trkpt>
      <trkpt lat="39.36387" lon="-0.45372">
        <time>2021-01-05 06:03:06</time>
      </trkpt>
      <trkpt lat="39.36395" lon="-0.45368">
        <time>2021-01-05 06:03:09</time>
      </trkpt>
      <trkpt lat="39.36411" lon="-0.45357">
        <time>2021-01-05 06:03:16</time>
      </trkpt>
      <trkpt lat="39.3643" lon="-0.45348">
        <time>2021-01-05 06:03:23</time>
      </trkpt>
      <trkpt lat="39.36447" lon="-0.4534">
        <time>2021-01-05 06:03:30</time>
      </trkpt>
      <trkpt lat="39.36465" lon="-0.4533">
        <time>2021-01-05 06:03:37</time>
      </trkpt>
      <trkpt lat="39.3647" lon="-0.45328">
        <time>2021-01-05 06:03:39</time>
      </trkpt>
      <trkpt lat="39.3649" lon="-0.45321">
        <time>2021-01-05 06:03:46</time>
      </trkpt>
      <trkpt lat="39.36501" lon="-0.45318">
        <time>2021-01-05 06:03:50</time>
      </trkpt>
      <trkpt lat="39.36519" lon="-0.45309">
        <time>2021-01-05 06:03:57</time>
      </trkpt>
      <trkpt lat="39.36521" lon="-0.45308">
        <time>2021-01-05 06:03:58</time>
      </trkpt>
      <trkpt lat="39.3654" lon="-0.453">
        <time>2021-01-05 06:04:05</time>
      </trkpt>
      <trkpt lat="39.36547" lon="-0.45296">
        <time>2021-01-05 06:04:08</time>
      </trkpt>
      <trkpt lat="39.36565" lon="-0.45287">
        <time>2021-01-05 06:04:15</time>
      </trkpt>
      <trkpt lat="39.36571" lon="-0.45284">
        <time>2021-01-05 06:04:17</time>
      </trkpt>
      <trkpt lat="39.36587" lon="-0.45273">
        <time>2021-01-05 06:04:24</time>
      </trkpt>
      <trkpt lat="39.3659" lon="-0.45271">
        <time>2021-01-05 06:04:25</time>
      </trkpt>
      <trkpt lat="39.36607" lon="-0.45263">
        <time>2021-01-05 06:04:32</time>
      </trkpt>
      <trkpt lat="39.3662" lon="-0.45257">
        <time>2021-01-05 06:04:37</time>
      </trkpt>
      <trkpt lat="39.36637" lon="-0.45248">
        <time>2021-01-05 06:04:44</time>
      </trkpt>
      <trkpt lat="39.3664" lon="-0.45247">
        <time>2021-01-05 06:04:45</time>
      </trkpt>
      <trkpt lat="39.36658" lon="-0.45242">
        <time>2021-01-05 06:04:51</time>
      </trkpt>
      <trkpt lat="39.36662" lon="-0.45243">
        <time>2021-01-05 06:04:52</time>
      </trkpt>
      <trkpt lat="39.36716" lon="-0.45193">
        <time>2021-01-05 06:04:59</time>
      </trkpt>
      <trkpt lat="39.36706" lon="-0.45167">
        <time>2021-01-05 06:05:06</time>
      </trkpt>
      <trkpt lat="39.367" lon="-0.45142">
        <time>2021-01-05 06:05:13</time>
      </trkpt>
      <trkpt lat="39.36699" lon="-0.45139">
        <time>2021-01-05 06:05:20</time>
      </trkpt>
      <trkpt lat="39.3669" lon="-0.45116">
        <time>2021-01-05 06:05:27</time>
      </trkpt>
      <trkpt lat="39.36682" lon="-0.45093">
        <time>2021-01-05 06:05:34</time>
      </trkpt>
      <trkpt lat="39.3668" lon="-0.45089">
        <time>2021-01-05 06:05:35</time>
      </trkpt>
      <trkpt lat="39.36673" lon="-0.45078">
        <time>2021-01-05 06:05:42</time>
      </trkpt>
      <trkpt lat="39.36667" lon="-0.45076">
        <time>2021-01-05 06:05:49</time>
      </trkpt>
      <trkpt lat="39.36649" lon="-0.45074">
        <time>2021-01-05 06:05:50</time>
      </trkpt>
      <trkpt lat="39.36646" lon="-0.45075">
        <time>2021-01-05 06:05:54</time>
      </trkpt>
      <trkpt lat="39.36628" lon="-0.45078">
        <time>2021-01-05 06:05:56</time>
      </trkpt>
      <trkpt lat="39.36609" lon="-0.45079">
        <time>2021-01-05 06:06:02</time>
      </trkpt>
      <trkpt lat="39.36606" lon="-0.45077">
        <time>2021-01-05 06:06:03</time>
      </trkpt>
      <trkpt lat="39.36589" lon="-0.45065">
        <time>2021-01-05 06:06:10</time>
      </trkpt>
      <trkpt lat="39.36584" lon="-0.45062">
        <time>2021-01-05 06:06:17</time>
      </trkpt>
      <trkpt lat="39.36566" lon="-0.45049">
        <time>2021-01-05 06:06:18</time>
      </trkpt>
      <trkpt lat="39.36561" lon="-0.45046">
        <time>2021-01-05 06:06:25</time>
      </trkpt>
      <trkpt lat="39.36545" lon="-0.45031">
        <time>2021-01-05 06:06:27</time>
      </trkpt>
      <trkpt lat="39.36543" lon="-0.4503">
        <time>2021-01-05 06:06:34</time>
      </trkpt>
      <trkpt lat="39.36525" lon="-0.45018">
        <time>2021-01-05 06:06:36</time>
      </trkpt>
      <trkpt lat="39.36523" lon="-0.45015">
        <time>2021-01-05 06:06:43</time>
      </trkpt>
      <trkpt lat="39.36507" lon="-0.45003">
        <time>2021-01-05 06:06:44</time>
      </trkpt>
      <trkpt lat="39.36502" lon="-0.44999">
        <time>2021-01-05 06:06:51</time>
      </trkpt>
      <trkpt lat="39.36485" lon="-0.44984">
        <time>2021-01-05 06:06:52</time>
      </trkpt>
      <trkpt lat="39.36478" lon="-0.44975">
        <time>2021-01-05 06:06:59</time>
      </trkpt>
      <trkpt lat="39.36463" lon="-0.44958">
        <time>2021-01-05 06:07:01</time>
      </trkpt>
      <trkpt lat="39.36457" lon="-0.4495">
        <time>2021-01-05 06:07:08</time>
      </trkpt>
      <trkpt lat="39.36442" lon="-0.44935">
        <time>2021-01-05 06:07:12</time>
      </trkpt>
      <trkpt lat="39.36429" lon="-0.44917">
        <time>2021-01-05 06:07:19</time>
      </trkpt>
      <trkpt lat="39.36425" lon="-0.44911">
        <time>2021-01-05 06:07:22</time>
      </trkpt>
      <trkpt lat="39.36411" lon="-0.44893">
        <time>2021-01-05 06:07:29</time>
      </trkpt>
      <trkpt lat="39.36401" lon="-0.44871">
        <time>2021-01-05 06:07:36</time>
      </trkpt>
      <trkpt lat="39.36401" lon="-0.44867">
        <time>2021-01-05 06:07:38</time>
      </trkpt>
      <trkpt lat="39.364" lon="-0.44841">
        <time>2021-01-05 06:07:45</time>
      </trkpt>
      <trkpt lat="39.364" lon="-0.44838">
        <time>2021-01-05 06:07:52</time>
      </trkpt>
      <trkpt lat="39.36405" lon="-0.44813">
        <time>2021-01-05 06:07:53</time>
      </trkpt>
      <trkpt lat="39.36408" lon="-0.44806">
        <time>2021-01-05 06:08:00</time>
      </trkpt>
      <trkpt lat="39.36417" lon="-0.44785">
        <time>2021-01-05 06:08:01</time>
      </trkpt>
      <trkpt lat="39.36419" lon="-0.44782">
        <time>2021-01-05 06:08:08</time>
      </trkpt>
      <trkpt lat="39.36426" lon="-0.44767">
        <time>2021-01-05 06:08:10</time>
      </trkpt>
      <trkpt lat="39.36434" lon="-0.4475">
        <time>2021-01-05 06:08:17</time>
      </trkpt>
      <trkpt lat="39.36443" lon="-0.44734">
        <time>2021-01-05 06:08:18</time>
      </trkpt>
      <trkpt lat="39.36446" lon="-0.44733">
        <time>2021-01-05 06:08:23</time>
      </trkpt>
      <trkpt lat="39.36454" lon="-0.4473">
        <time>2021-01-05 06:08:29</time>
      </trkpt>
      <trkpt lat="39.36454" lon="-0.44724">
        <time>2021-01-05 06:08:35</time>
      </trkpt>
      <trkpt lat="39.36453" lon="-0.44718">
        <time>2021-01-05 06:08:36</time>
      </trkpt>
      <trkpt lat="39.36443" lon="-0.44697">
        <time>2021-01-05 06:08:40</time>
      </trkpt>
      <trkpt lat="39.36428" lon="-0.44693">
        <time>2021-01-05 06:08:42</time>
      </trkpt>
      <trkpt lat="39.36415" lon="-0.44687">
        <time>2021-01-05 06:08:44</time>
      </trkpt>
      <trkpt lat="39.36411" lon="-0.44685">
        <time>2021-01-05 06:08:51</time>
      </trkpt>
      <trkpt lat="39.36405" lon="-0.44682">
        <time>2021-01-05 06:08:56</time>
      </trkpt>
      <trkpt lat="39.36398" lon="-0.44667">
        <time>2021-01-05 06:09:02</time>
      </trkpt>
      <trkpt lat="39.36398" lon="-0.44663">
        <time>2021-01-05 06:09:04</time>
      </trkpt>
      <trkpt lat="39.36396" lon="-0.44639">
        <time>2021-01-05 06:09:06</time>
      </trkpt>
      <trkpt lat="39.36396" lon="-0.44635">
        <time>2021-01-05 06:09:10</time>
      </trkpt>
      <trkpt lat="39.36397" lon="-0.44611">
        <time>2021-01-05 06:09:11</time>
      </trkpt>
      <trkpt lat="39.36399" lon="-0.44606">
        <time>2021-01-05 06:09:16</time>
      </trkpt>
      <trkpt lat="39.36405" lon="-0.44583">
        <time>2021-01-05 06:09:17</time>
      </trkpt>
      <trkpt lat="39.36406" lon="-0.44575">
        <time>2021-01-05 06:09:23</time>
      </trkpt>
      <trkpt lat="39.36411" lon="-0.44551">
        <time>2021-01-05 06:09:24</time>
      </trkpt>
      <trkpt lat="39.36412" lon="-0.44546">
        <time>2021-01-05 06:09:30</time>
      </trkpt>
      <trkpt lat="39.36415" lon="-0.44521">
        <time>2021-01-05 06:09:32</time>
      </trkpt>
      <trkpt lat="39.36416" lon="-0.44517">
        <time>2021-01-05 06:09:38</time>
      </trkpt>
      <trkpt lat="39.36422" lon="-0.44494">
        <time>2021-01-05 06:09:39</time>
      </trkpt>
      <trkpt lat="39.36425" lon="-0.44493">
        <time>2021-01-05 06:09:46</time>
      </trkpt>
      <trkpt lat="39.36439" lon="-0.4449">
        <time>2021-01-05 06:09:47</time>
      </trkpt>
      <trkpt lat="39.36458" lon="-0.44491">
        <time>2021-01-05 06:09:54</time>
      </trkpt>
      <trkpt lat="39.36461" lon="-0.4449">
        <time>2021-01-05 06:09:55</time>
      </trkpt>
      <trkpt lat="39.36468" lon="-0.44487">
        <time>2021-01-05 06:10:00</time>
      </trkpt>
      <trkpt lat="39.3647" lon="-0.4448">
        <time>2021-01-05 06:10:07</time>
      </trkpt>
      <trkpt lat="39.36469" lon="-0.44454">
        <time>2021-01-05 06:10:08</time>
      </trkpt>
      <trkpt lat="39.36468" lon="-0.44451">
        <time>2021-01-05 06:10:11</time>
      </trkpt>
      <trkpt lat="39.36468" lon="-0.44427">
        <time>2021-01-05 06:10:13</time>
      </trkpt>
      <trkpt lat="39.36467" lon="-0.44408">
        <time>2021-01-05 06:10:19</time>
      </trkpt>
      <trkpt lat="39.36466" lon="-0.44401">
        <time>2021-01-05 06:10:20</time>
      </trkpt>
      <trkpt lat="39.36465" lon="-0.44393">
        <time>2021-01-05 06:10:27</time>
      </trkpt>
      <trkpt lat="39.36466" lon="-0.44382">
        <time>2021-01-05 06:10:32</time>
      </trkpt>
      <trkpt lat="39.36467" lon="-0.44374">
        <time>2021-01-05 06:10:34</time>
      </trkpt>
      <trkpt lat="39.36466" lon="-0.44356">
        <time>2021-01-05 06:10:36</time>
      </trkpt>
      <trkpt lat="39.36464" lon="-0.44332">
        <time>2021-01-05 06:10:39</time>
      </trkpt>
      <trkpt lat="39.36462" lon="-0.44321">
        <time>2021-01-05 06:10:41</time>
      </trkpt>
      <trkpt lat="39.36461" lon="-0.44295">
        <time>2021-01-05 06:10:46</time>
      </trkpt>
      <trkpt lat="39.36462" lon="-0.44271">
        <time>2021-01-05 06:10:52</time>
      </trkpt>
      <trkpt lat="39.36457" lon="-0.44248">
        <time>2021-01-05 06:10:55</time>
      </trkpt>
      <trkpt lat="39.36456" lon="-0.44245">
        <time>2021-01-05 06:11:02</time>
      </trkpt>
      <trkpt lat="39.36448" lon="-0.44225">
        <time>2021-01-05 06:11:09</time>
      </trkpt>
      <trkpt lat="39.36435" lon="-0.44206">
        <time>2021-01-05 06:11:15</time>
      </trkpt>
      <trkpt lat="39.36428" lon="-0.44186">
        <time>2021-01-05 06:11:16</time>
      </trkpt>
      <trkpt lat="39.36421" lon="-0.44172">
        <time>2021-01-05 06:11:22</time>
      </trkpt>
      <trkpt lat="39.36421" lon="-0.4415">
        <time>2021-01-05 06:11:29</time>
      </trkpt>
      <trkpt lat="39.36422" lon="-0.44135">
        <time>2021-01-05 06:11:35</time>
      </trkpt>
      <trkpt lat="39.36423" lon="-0.44119">
        <time>2021-01-05 06:11:39</time>
      </trkpt>
      <trkpt lat="39.36425" lon="-0.44092">
        <time>2021-01-05 06:11:45</time>
      </trkpt>
      <trkpt lat="39.36427" lon="-0.44066">
        <time>2021-01-05 06:11:49</time>
      </trkpt>
      <trkpt lat="39.36428" lon="-0.4406">
        <time>2021-01-05 06:11:53</time>
      </trkpt>
      <trkpt lat="39.36428" lon="-0.44039">
        <time>2021-01-05 06:12:00</time>
      </trkpt>
      <trkpt lat="39.36429" lon="-0.44015">
        <time>2021-01-05 06:12:07</time>
      </trkpt>
      <trkpt lat="39.3643" lon="-0.44008">
        <time>2021-01-05 06:12:09</time>
      </trkpt>
      <trkpt lat="39.36433" lon="-0.43983">
        <time>2021-01-05 06:12:15</time>
      </trkpt>
      <trkpt lat="39.36433" lon="-0.43959">
        <time>2021-01-05 06:12:22</time>
      </trkpt>
      <trkpt lat="39.36434" lon="-0.43944">
        <time>2021-01-05 06:12:24</time>
      </trkpt>
      <trkpt lat="39.36436" lon="-0.4392">
        <time>2021-01-05 06:12:31</time>
      </trkpt>
      <trkpt lat="39.36439" lon="-0.43901">
        <time>2021-01-05 06:12:37</time>
      </trkpt>
      <trkpt lat="39.36444" lon="-0.43875">
        <time>2021-01-05 06:12:41</time>
      </trkpt>
      <trkpt lat="39.36445" lon="-0.43872">
        <time>2021-01-05 06:12:47</time>
      </trkpt>
      <trkpt lat="39.36451" lon="-0.4385">
        <time>2021-01-05 06:12:52</time>
      </trkpt>
      <trkpt lat="39.36454" lon="-0.43838">
        <time>2021-01-05 06:12:59</time>
      </trkpt>
      <trkpt lat="39.36459" lon="-0.43813">
        <time>2021-01-05 06:13:00</time>
      </trkpt>
      <trkpt lat="39.36462" lon="-0.43805">
        <time>2021-01-05 06:13:06</time>
      </trkpt>
      <trkpt lat="39.36466" lon="-0.43781">
        <time>2021-01-05 06:13:09</time>
      </trkpt>
      <trkpt lat="39.36469" lon="-0.43757">
        <time>2021-01-05 06:13:16</time>
      </trkpt>
      <trkpt lat="39.36473" lon="-0.4373">
        <time>2021-01-05 06:13:18</time>
      </trkpt>
      <trkpt lat="39.36474" lon="-0.43727">
        <time>2021-01-05 06:13:25</time>
      </trkpt>
      <trkpt lat="39.36477" lon="-0.43703">
        <time>2021-01-05 06:13:32</time>
      </trkpt>
      <trkpt lat="39.36478" lon="-0.43686">
        <time>2021-01-05 06:13:39</time>
      </trkpt>
      <trkpt lat="39.36478" lon="-0.4366">
        <time>2021-01-05 06:13:40</time>
      </trkpt>
      <trkpt lat="39.36478" lon="-0.43649">
        <time>2021-01-05 06:13:46</time>
      </trkpt>
      <trkpt lat="39.36478" lon="-0.43622">
        <time>2021-01-05 06:13:51</time>
      </trkpt>
      <trkpt lat="39.36479" lon="-0.43614">
        <time>2021-01-05 06:13:58</time>
      </trkpt>
      <trkpt lat="39.36479" lon="-0.43587">
        <time>2021-01-05 06:14:01</time>
      </trkpt>
      <trkpt lat="39.36479" lon="-0.43577">
        <time>2021-01-05 06:14:08</time>
      </trkpt>
      <trkpt lat="39.36477" lon="-0.43551">
        <time>2021-01-05 06:14:10</time>
      </trkpt>
      <trkpt lat="39.36475" lon="-0.43525">
        <time>2021-01-05 06:14:17</time>
      </trkpt>
      <trkpt lat="39.36475" lon="-0.435">
        <time>2021-01-05 06:14:20</time>
      </trkpt>
      <trkpt lat="39.36473" lon="-0.43475">
        <time>2021-01-05 06:14:27</time>
      </trkpt>
      <trkpt lat="39.36473" lon="-0.43468">
        <time>2021-01-05 06:14:34</time>
      </trkpt>
      <trkpt lat="39.36473" lon="-0.43442">
        <time>2021-01-05 06:14:41</time>
      </trkpt>
      <trkpt lat="39.36474" lon="-0.43436">
        <time>2021-01-05 06:14:48</time>
      </trkpt>
      <trkpt lat="39.36475" lon="-0.4341">
        <time>2021-01-05 06:14:50</time>
      </trkpt>
      <trkpt lat="39.36475" lon="-0.43406">
        <time>2021-01-05 06:14:57</time>
      </trkpt>
      <trkpt lat="39.36475" lon="-0.4338">
        <time>2021-01-05 06:14:59</time>
      </trkpt>
      <trkpt lat="39.36473" lon="-0.43357">
        <time>2021-01-05 06:15:06</time>
      </trkpt>
      <trkpt lat="39.36472" lon="-0.43352">
        <time>2021-01-05 06:15:07</time>
      </trkpt>
      <trkpt lat="39.36473" lon="-0.43326">
        <time>2021-01-05 06:15:14</time>
      </trkpt>
      <trkpt lat="39.36473" lon="-0.43319">
        <time>2021-01-05 06:15:20</time>
      </trkpt>
      <trkpt lat="39.36473" lon="-0.43293">
        <time>2021-01-05 06:15:21</time>
      </trkpt>
      <trkpt lat="39.36474" lon="-0.43286">
        <time>2021-01-05 06:15:28</time>
      </trkpt>
      <trkpt lat="39.36475" lon="-0.43264">
        <time>2021-01-05 06:15:30</time>
      </trkpt>
      <trkpt lat="39.36476" lon="-0.43238">
        <time>2021-01-05 06:15:37</time>
      </trkpt>
      <trkpt lat="39.36476" lon="-0.43231">
        <time>2021-01-05 06:15:39</time>
      </trkpt>
      <trkpt lat="39.36476" lon="-0.43206">
        <time>2021-01-05 06:15:45</time>
      </trkpt>
      <trkpt lat="39.36476" lon="-0.43203">
        <time>2021-01-05 06:15:52</time>
      </trkpt>
      <trkpt lat="39.36479" lon="-0.43179">
        <time>2021-01-05 06:15:54</time>
      </trkpt>
      <trkpt lat="39.36479" lon="-0.43175">
        <time>2021-01-05 06:16:01</time>
      </trkpt>
      <trkpt lat="39.36481" lon="-0.4315">
        <time>2021-01-05 06:16:02</time>
      </trkpt>
      <trkpt lat="39.36484" lon="-0.43126">
        <time>2021-01-05 06:16:09</time>
      </trkpt>
      <trkpt lat="39.36485" lon="-0.43119">
        <time>2021-01-05 06:16:10</time>
      </trkpt>
      <trkpt lat="39.36487" lon="-0.43093">
        <time>2021-01-05 06:16:17</time>
      </trkpt>
      <trkpt lat="39.36487" lon="-0.43085">
        <time>2021-01-05 06:16:23</time>
      </trkpt>
      <trkpt lat="39.3649" lon="-0.4306">
        <time>2021-01-05 06:16:25</time>
      </trkpt>
      <trkpt lat="39.3649" lon="-0.43045">
        <time>2021-01-05 06:16:32</time>
      </trkpt>
      <trkpt lat="39.36492" lon="-0.43021">
        <time>2021-01-05 06:16:34</time>
      </trkpt>
      <trkpt lat="39.36494" lon="-0.42995">
        <time>2021-01-05 06:16:41</time>
      </trkpt>
      <trkpt lat="39.36495" lon="-0.42984">
        <time>2021-01-05 06:16:45</time>
      </trkpt>
      <trkpt lat="39.365" lon="-0.4296">
        <time>2021-01-05 06:16:52</time>
      </trkpt>
      <trkpt lat="39.36503" lon="-0.42953">
        <time>2021-01-05 06:16:59</time>
      </trkpt>
      <trkpt lat="39.36516" lon="-0.42944">
        <time>2021-01-05 06:17:02</time>
      </trkpt>
      <trkpt lat="39.36534" lon="-0.42941">
        <time>2021-01-05 06:17:08</time>
      </trkpt>
      <trkpt lat="39.36546" lon="-0.42938">
        <time>2021-01-05 06:17:10</time>
      </trkpt>
      <trkpt lat="39.36565" lon="-0.42931">
        <time>2021-01-05 06:17:15</time>
      </trkpt>
      <trkpt lat="39.36574" lon="-0.42929">
        <time>2021-01-05 06:17:21</time>
      </trkpt>
      <trkpt lat="39.36592" lon="-0.42922">
        <time>2021-01-05 06:17:25</time>
      </trkpt>
      <trkpt lat="39.36606" lon="-0.42917">
        <time>2021-01-05 06:17:31</time>
      </trkpt>
      <trkpt lat="39.36626" lon="-0.4291">
        <time>2021-01-05 06:17:34</time>
      </trkpt>
      <trkpt lat="39.36632" lon="-0.42909">
        <time>2021-01-05 06:17:40</time>
      </trkpt>
      <trkpt lat="39.36651" lon="-0.42901">
        <time>2021-01-05 06:17:45</time>
      </trkpt>
      <trkpt lat="39.36653" lon="-0.429">
        <time>2021-01-05 06:17:52</time>
      </trkpt>
      <trkpt lat="39.36673" lon="-0.42894">
        <time>2021-01-05 06:17:54</time>
      </trkpt>
      <trkpt lat="39.36687" lon="-0.42891">
        <time>2021-01-05 06:18:01</time>
      </trkpt>
      <trkpt lat="39.36707" lon="-0.42892">
        <time>2021-01-05 06:18:02</time>
      </trkpt>
      <trkpt lat="39.36721" lon="-0.42898">
        <time>2021-01-05 06:18:09</time>
      </trkpt>
      <trkpt lat="39.36735" lon="-0.42892">
        <time>2021-01-05 06:18:14</time>
      </trkpt>
      <trkpt lat="39.3675" lon="-0.42878">
        <time>2021-01-05 06:18:21</time>
      </trkpt>
      <trkpt lat="39.36765" lon="-0.42866">
        <time>2021-01-05 06:18:27</time>
      </trkpt>
      <trkpt lat="39.36774" lon="-0.42861">
        <time>2021-01-05 06:18:32</time>
      </trkpt>
      <trkpt lat="39.36793" lon="-0.42854">
        <time>2021-01-05 06:18:38</time>
      </trkpt>
      <trkpt lat="39.36801" lon="-0.42851">
        <time>2021-01-05 06:18:44</time>
      </trkpt>
      <trkpt lat="39.3682" lon="-0.42842">
        <time>2021-01-05 06:18:47</time>
      </trkpt>
      <trkpt lat="39.3684" lon="-0.42835">
        <time>2021-01-05 06:18:54</time>
      </trkpt>
      <trkpt lat="39.36852" lon="-0.4283">
        <time>2021-01-05 06:18:57</time>
      </trkpt>
      <trkpt lat="39.3687" lon="-0.42821">
        <time>2021-01-05 06:19:04</time>
      </trkpt>
      <trkpt lat="39.36872" lon="-0.42819">
        <time>2021-01-05 06:19:11</time>
      </trkpt>
      <trkpt lat="39.36885" lon="-0.42818">
        <time>2021-01-05 06:19:15</time>
      </trkpt>
      <trkpt lat="39.36906" lon="-0.42818">
        <time>2021-01-05 06:19:22</time>
      </trkpt>
      <trkpt lat="39.36915" lon="-0.42818">
        <time>2021-01-05 06:19:23</time>
      </trkpt>
      <trkpt lat="39.36935" lon="-0.42817">
        <time>2021-01-05 06:19:28</time>
      </trkpt>
      <trkpt lat="39.36944" lon="-0.42815">
        <time>2021-01-05 06:19:35</time>
      </trkpt>
      <trkpt lat="39.36963" lon="-0.42812">
        <time>2021-01-05 06:19:38</time>
      </trkpt>
      <trkpt lat="39.36975" lon="-0.4281">
        <time>2021-01-05 06:19:45</time>
      </trkpt>
      <trkpt lat="39.36995" lon="-0.42804">
        <time>2021-01-05 06:19:48</time>
      </trkpt>
      <trkpt lat="39.37001" lon="-0.42802">
        <time>2021-01-05 06:19:54</time>
      </trkpt>
      <trkpt lat="39.3702" lon="-0.42794">
        <time>2021-01-05 06:19:58</time>
      </trkpt>
      <trkpt lat="39.3704" lon="-0.42791">
        <time>2021-01-05 06:20:05</time>
      </trkpt>
      <trkpt lat="39.37052" lon="-0.4279">
        <time>2021-01-05 06:20:07</time>
      </trkpt>
      <trkpt lat="39.37072" lon="-0.42788">
        <time>2021-01-05 06:20:14</time>
      </trkpt>
      <trkpt lat="39.37081" lon="-0.42787">
        <time>2021-01-05 06:20:21</time>
      </trkpt>
      <trkpt lat="39.37101" lon="-0.42784">
        <time>2021-01-05 06:20:25</time>
      </trkpt>
      <trkpt lat="39.37107" lon="-0.42784">
        <time>2021-01-05 06:20:32</time>
      </trkpt>
      <trkpt lat="39.37127" lon="-0.42783">
        <time>2021-01-05 06:20:35</time>
      </trkpt>
      <trkpt lat="39.37134" lon="-0.42783">
        <time>2021-01-05 06:20:42</time>
      </trkpt>
      <trkpt lat="39.37152" lon="-0.42782">
        <time>2021-01-05 06:20:44</time>
      </trkpt>
      <trkpt lat="39.37155" lon="-0.42782">
        <time>2021-01-05 06:20:51</time>
      </trkpt>
      <trkpt lat="39.37175" lon="-0.42783">
        <time>2021-01-05 06:20:53</time>
      </trkpt>
      <trkpt lat="39.3718" lon="-0.42783">
        <time>2021-01-05 06:21:00</time>
      </trkpt>
      <trkpt lat="39.37199" lon="-0.42782">
        <time>2021-01-05 06:21:01</time>
      </trkpt>
      <trkpt lat="39.37212" lon="-0.42779">
        <time>2021-01-05 06:21:08</time>
      </trkpt>
      <trkpt lat="39.37232" lon="-0.42778">
        <time>2021-01-05 06:21:10</time>
      </trkpt>
      <trkpt lat="39.37235" lon="-0.42778">
        <time>2021-01-05 06:21:16</time>
      </trkpt>
      <trkpt lat="39.37256" lon="-0.42779">
        <time>2021-01-05 06:21:20</time>
      </trkpt>
      <trkpt lat="39.37268" lon="-0.42778">
        <time>2021-01-05 06:21:27</time>
      </trkpt>
      <trkpt lat="39.37286" lon="-0.42777">
        <time>2021-01-05 06:21:28</time>
      </trkpt>
      <trkpt lat="39.37297" lon="-0.42778">
        <time>2021-01-05 06:21:35</time>
      </trkpt>
      <trkpt lat="39.37317" lon="-0.42778">
        <time>2021-01-05 06:21:39</time>
      </trkpt>
      <trkpt lat="39.37328" lon="-0.42778">
        <time>2021-01-05 06:21:46</time>
      </trkpt>
      <trkpt lat="39.37349" lon="-0.42781">
        <time>2021-01-05 06:21:50</time>
      </trkpt>
      <trkpt lat="39.37354" lon="-0.42782">
        <time>2021-01-05 06:21:57</time>
      </trkpt>
      <trkpt lat="39.37374" lon="-0.42784">
        <time>2021-01-05 06:22:01</time>
      </trkpt>
      <trkpt lat="39.3738" lon="-0.42785">
        <time>2021-01-05 06:22:08</time>
      </trkpt>
      <trkpt lat="39.37393" lon="-0.42785">
        <time>2021-01-05 06:22:10</time>
      </trkpt>
      <trkpt lat="39.37408" lon="-0.42786">
        <time>2021-01-05 06:22:17</time>
      </trkpt>
      <trkpt lat="39.37429" lon="-0.42786">
        <time>2021-01-05 06:22:19</time>
      </trkpt>
      <trkpt lat="39.37438" lon="-0.42787">
        <time>2021-01-05 06:22:24</time>
      </trkpt>
      <trkpt lat="39.37458" lon="-0.42789">
        <time>2021-01-05 06:22:30</time>
      </trkpt>
      <trkpt lat="39.37467" lon="-0.42791">
        <time>2021-01-05 06:22:36</time>
      </trkpt>
      <trkpt lat="39.37486" lon="-0.42795">
        <time>2021-01-05 06:22:39</time>
      </trkpt>
      <trkpt lat="39.37492" lon="-0.42795">
        <time>2021-01-05 06:22:46</time>
      </trkpt>
      <trkpt lat="39.37511" lon="-0.42797">
        <time>2021-01-05 06:22:49</time>
      </trkpt>
      <trkpt lat="39.3752" lon="-0.428">
        <time>2021-01-05 06:22:56</time>
      </trkpt>
      <trkpt lat="39.3754" lon="-0.42805">
        <time>2021-01-05 06:22:58</time>
      </trkpt>
      <trkpt lat="39.37546" lon="-0.42806">
        <time>2021-01-05 06:23:05</time>
      </trkpt>
      <trkpt lat="39.37565" lon="-0.42807">
        <time>2021-01-05 06:23:08</time>
      </trkpt>
      <trkpt lat="39.37571" lon="-0.42808">
        <time>2021-01-05 06:23:15</time>
      </trkpt>
      <trkpt lat="39.3759" lon="-0.42811">
        <time>2021-01-05 06:23:17</time>
      </trkpt>
      <trkpt lat="39.37607" lon="-0.42815">
        <time>2021-01-05 06:23:24</time>
      </trkpt>
      <trkpt lat="39.37626" lon="-0.42819">
        <time>2021-01-05 06:23:26</time>
      </trkpt>
      <trkpt lat="39.37635" lon="-0.42821">
        <time>2021-01-05 06:23:33</time>
      </trkpt>
      <trkpt lat="39.37653" lon="-0.42826">
        <time>2021-01-05 06:23:39</time>
      </trkpt>
      <trkpt lat="39.37665" lon="-0.42828">
        <time>2021-01-05 06:23:46</time>
      </trkpt>
      <trkpt lat="39.37686" lon="-0.42832">
        <time>2021-01-05 06:23:49</time>
      </trkpt>
      <trkpt lat="39.37694" lon="-0.42834">
        <time>2021-01-05 06:23:56</time>
      </trkpt>
      <trkpt lat="39.37713" lon="-0.42839">
        <time>2021-01-05 06:24:00</time>
      </trkpt>
      <trkpt lat="39.37718" lon="-0.42841">
        <time>2021-01-05 06:24:07</time>
      </trkpt>
      <trkpt lat="39.37737" lon="-0.42847">
        <time>2021-01-05 06:24:10</time>
      </trkpt>
      <trkpt lat="39.37739" lon="-0.42848">
        <time>2021-01-05 06:24:17</time>
      </trkpt>
      <trkpt lat="39.37759" lon="-0.42855">
        <time>2021-01-05 06:24:19</time>
      </trkpt>
      <trkpt lat="39.37764" lon="-0.42856">
        <time>2021-01-05 06:24:26</time>
      </trkpt>
      <trkpt lat="39.37769" lon="-0.42858">
        <time>2021-01-05 06:24:27</time>
      </trkpt>
      <trkpt lat="39.37769" lon="-0.42859">
        <time>2021-01-05 06:24:34</time>
      </trkpt>
      <trkpt lat="39.37769" lon="-0.42859">
        <time>2021-01-05 06:24:36</time>
      </trkpt>
      <trkpt lat="39.37776" lon="-0.42859">
        <time>2021-01-05 06:24:38</time>
      </trkpt>
      <trkpt lat="39.37797" lon="-0.42862">
        <time>2021-01-05 06:28:58</time>
      </trkpt>
      <trkpt lat="39.37809" lon="-0.42865">
        <time>2021-01-05 06:28:59</time>
      </trkpt>
      <trkpt lat="39.37828" lon="-0.42869">
        <time>2021-01-05 06:29:02</time>
      </trkpt>
      <trkpt lat="39.37834" lon="-0.4287">
        <time>2021-01-05 06:29:08</time>
      </trkpt>
      <trkpt lat="39.37855" lon="-0.42876">
        <time>2021-01-05 06:29:12</time>
      </trkpt>
      <trkpt lat="39.3786" lon="-0.42878">
        <time>2021-01-05 06:29:19</time>
      </trkpt>
      <trkpt lat="39.37879" lon="-0.42884">
        <time>2021-01-05 06:29:21</time>
      </trkpt>
      <trkpt lat="39.37884" lon="-0.42886">
        <time>2021-01-05 06:29:28</time>
      </trkpt>
      <trkpt lat="39.37903" lon="-0.42894">
        <time>2021-01-05 06:29:30</time>
      </trkpt>
      <trkpt lat="39.37914" lon="-0.42899">
        <time>2021-01-05 06:29:37</time>
      </trkpt>
      <trkpt lat="39.37933" lon="-0.42907">
        <time>2021-01-05 06:29:39</time>
      </trkpt>
      <trkpt lat="39.37938" lon="-0.42909">
        <time>2021-01-05 06:29:46</time>
      </trkpt>
      <trkpt lat="39.37958" lon="-0.42915">
        <time>2021-01-05 06:29:50</time>
      </trkpt>
      <trkpt lat="39.37967" lon="-0.42917">
        <time>2021-01-05 06:29:57</time>
      </trkpt>
      <trkpt lat="39.37986" lon="-0.42926">
        <time>2021-01-05 06:29:59</time>
      </trkpt>
      <trkpt lat="39.37997" lon="-0.42931">
        <time>2021-01-05 06:30:06</time>
      </trkpt>
      <trkpt lat="39.38015" lon="-0.42941">
        <time>2021-01-05 06:30:09</time>
      </trkpt>
      <trkpt lat="39.38018" lon="-0.42942">
        <time>2021-01-05 06:30:16</time>
      </trkpt>
      <trkpt lat="39.38036" lon="-0.4295">
        <time>2021-01-05 06:30:20</time>
      </trkpt>
      <trkpt lat="39.38041" lon="-0.42951">
        <time>2021-01-05 06:30:27</time>
      </trkpt>
      <trkpt lat="39.3806" lon="-0.4296">
        <time>2021-01-05 06:30:28</time>
      </trkpt>
      <trkpt lat="39.38067" lon="-0.42962">
        <time>2021-01-05 06:30:34</time>
      </trkpt>
      <trkpt lat="39.38086" lon="-0.42971">
        <time>2021-01-05 06:30:36</time>
      </trkpt>
      <trkpt lat="39.38091" lon="-0.42974">
        <time>2021-01-05 06:30:43</time>
      </trkpt>
      <trkpt lat="39.38111" lon="-0.42983">
        <time>2021-01-05 06:30:46</time>
      </trkpt>
      <trkpt lat="39.38113" lon="-0.42984">
        <time>2021-01-05 06:30:53</time>
      </trkpt>
      <trkpt lat="39.38131" lon="-0.42994">
        <time>2021-01-05 06:30:55</time>
      </trkpt>
      <trkpt lat="39.38137" lon="-0.42997">
        <time>2021-01-05 06:31:02</time>
      </trkpt>
      <trkpt lat="39.38156" lon="-0.43006">
        <time>2021-01-05 06:31:03</time>
      </trkpt>
      <trkpt lat="39.38158" lon="-0.43007">
        <time>2021-01-05 06:31:10</time>
      </trkpt>
      <trkpt lat="39.38176" lon="-0.43021">
        <time>2021-01-05 06:31:12</time>
      </trkpt>
      <trkpt lat="39.38179" lon="-0.43026">
        <time>2021-01-05 06:31:19</time>
      </trkpt>
      <trkpt lat="39.38179" lon="-0.4303">
        <time>2021-01-05 06:31:20</time>
      </trkpt>
      <trkpt lat="39.38175" lon="-0.43039">
        <time>2021-01-05 06:31:27</time>
      </trkpt>
      <trkpt lat="39.38162" lon="-0.43056">
        <time>2021-01-05 06:31:29</time>
      </trkpt>
      <trkpt lat="39.38155" lon="-0.43065">
        <time>2021-01-05 06:31:30</time>
      </trkpt>
      <trkpt lat="39.3815" lon="-0.43074">
        <time>2021-01-05 06:31:33</time>
      </trkpt>
      <trkpt lat="39.38148" lon="-0.43087">
        <time>2021-01-05 06:31:39</time>
      </trkpt>
      <trkpt lat="39.38157" lon="-0.43095">
        <time>2021-01-05 06:31:42</time>
      </trkpt>
      <trkpt lat="39.38167" lon="-0.43094">
        <time>2021-01-05 06:31:45</time>
      </trkpt>
      <trkpt lat="39.38182" lon="-0.43079">
        <time>2021-01-05 06:31:49</time>
      </trkpt>
      <trkpt lat="39.38194" lon="-0.43061">
        <time>2021-01-05 06:31:53</time>
      </trkpt>
      <trkpt lat="39.38199" lon="-0.43052">
        <time>2021-01-05 06:31:57</time>
      </trkpt>
      <trkpt lat="39.38213" lon="-0.43035">
        <time>2021-01-05 06:32:04</time>
      </trkpt>
      <trkpt lat="39.38226" lon="-0.43039">
        <time>2021-01-05 06:32:10</time>
      </trkpt>
      <trkpt lat="39.38245" lon="-0.4305">
        <time>2021-01-05 06:32:13</time>
      </trkpt>
      <trkpt lat="39.38252" lon="-0.43055">
        <time>2021-01-05 06:32:20</time>
      </trkpt>
      <trkpt lat="39.38269" lon="-0.43065">
        <time>2021-01-05 06:32:25</time>
      </trkpt>
      <trkpt lat="39.38274" lon="-0.43067">
        <time>2021-01-05 06:32:32</time>
      </trkpt>
      <trkpt lat="39.38291" lon="-0.43079">
        <time>2021-01-05 06:32:35</time>
      </trkpt>
      <trkpt lat="39.38297" lon="-0.43083">
        <time>2021-01-05 06:32:42</time>
      </trkpt>
      <trkpt lat="39.38314" lon="-0.43094">
        <time>2021-01-05 06:32:44</time>
      </trkpt>
      <trkpt lat="39.38317" lon="-0.43096">
        <time>2021-01-05 06:32:51</time>
      </trkpt>
      <trkpt lat="39.38334" lon="-0.43107">
        <time>2021-01-05 06:32:54</time>
      </trkpt>
      <trkpt lat="39.3834" lon="-0.4311">
        <time>2021-01-05 06:33:01</time>
      </trkpt>
      <trkpt lat="39.38358" lon="-0.43119">
        <time>2021-01-05 06:33:02</time>
      </trkpt>
      <trkpt lat="39.38371" lon="-0.43127">
        <time>2021-01-05 06:33:09</time>
      </trkpt>
      <trkpt lat="39.38389" lon="-0.43138">
        <time>2021-01-05 06:33:11</time>
      </trkpt>
      <trkpt lat="39.38397" lon="-0.43143">
        <time>2021-01-05 06:33:18</time>
      </trkpt>
      <trkpt lat="39.38415" lon="-0.43153">
        <time>2021-01-05 06:33:23</time>
      </trkpt>
      <trkpt lat="39.3842" lon="-0.43156">
        <time>2021-01-05 06:33:30</time>
      </trkpt>
      <trkpt lat="39.38438" lon="-0.43168">
        <time>2021-01-05 06:33:33</time>
      </trkpt>
      <trkpt lat="39.38445" lon="-0.43174">
        <time>2021-01-05 06:33:40</time>
      </trkpt>
      <trkpt lat="39.38461" lon="-0.43185">
        <time>2021-01-05 06:33:42</time>
      </trkpt>
      <trkpt lat="39.38469" lon="-0.43192">
        <time>2021-01-05 06:33:49</time>
      </trkpt>
      <trkpt lat="39.38486" lon="-0.43205">
        <time>2021-01-05 06:33:52</time>
      </trkpt>
      <trkpt lat="39.38499" lon="-0.43213">
        <time>2021-01-05 06:33:58</time>
      </trkpt>
      <trkpt lat="39.38517" lon="-0.43228">
        <time>2021-01-05 06:34:01</time>
      </trkpt>
      <trkpt lat="39.3852" lon="-0.43234">
        <time>2021-01-05 06:34:08</time>
      </trkpt>
      <trkpt lat="39.38522" lon="-0.43252">
        <time>2021-01-05 06:34:13</time>
      </trkpt>
      <trkpt lat="39.3851" lon="-0.43269">
        <time>2021-01-05 06:34:20</time>
      </trkpt>
      <trkpt lat="39.38498" lon="-0.43288">
        <time>2021-01-05 06:34:22</time>
      </trkpt>
      <trkpt lat="39.38498" lon="-0.43291">
        <time>2021-01-05 06:34:27</time>
      </trkpt>
      <trkpt lat="39.38503" lon="-0.43299">
        <time>2021-01-05 06:34:33</time>
      </trkpt>
      <trkpt lat="39.38513" lon="-0.43301">
        <time>2021-01-05 06:34:40</time>
      </trkpt>
      <trkpt lat="39.38525" lon="-0.43291">
        <time>2021-01-05 06:34:41</time>
      </trkpt>
      <trkpt lat="39.38542" lon="-0.43278">
        <time>2021-01-05 06:34:44</time>
      </trkpt>
      <trkpt lat="39.38546" lon="-0.43272">
        <time>2021-01-05 06:34:48</time>
      </trkpt>
      <trkpt lat="39.3856" lon="-0.43258">
        <time>2021-01-05 06:34:53</time>
      </trkpt>
      <trkpt lat="39.38563" lon="-0.43258">
        <time>2021-01-05 06:35:00</time>
      </trkpt>
      <trkpt lat="39.38576" lon="-0.43264">
        <time>2021-01-05 06:35:02</time>
      </trkpt>
      <trkpt lat="39.38593" lon="-0.43276">
        <time>2021-01-05 06:35:08</time>
      </trkpt>
      <trkpt lat="39.38612" lon="-0.43289">
        <time>2021-01-05 06:35:09</time>
      </trkpt>
      <trkpt lat="39.38624" lon="-0.43298">
        <time>2021-01-05 06:35:14</time>
      </trkpt>
      <trkpt lat="39.3864" lon="-0.43311">
        <time>2021-01-05 06:35:21</time>
      </trkpt>
      <trkpt lat="39.38649" lon="-0.43318">
        <time>2021-01-05 06:35:28</time>
      </trkpt>
      <trkpt lat="39.38666" lon="-0.43331">
        <time>2021-01-05 06:35:33</time>
      </trkpt>
      <trkpt lat="39.38681" lon="-0.43342">
        <time>2021-01-05 06:35:40</time>
      </trkpt>
      <trkpt lat="39.38698" lon="-0.43355">
        <time>2021-01-05 06:35:44</time>
      </trkpt>
      <trkpt lat="39.38714" lon="-0.43367">
        <time>2021-01-05 06:35:51</time>
      </trkpt>
      <trkpt lat="39.38721" lon="-0.43372">
        <time>2021-01-05 06:35:57</time>
      </trkpt>
      <trkpt lat="39.38738" lon="-0.43385">
        <time>2021-01-05 06:36:04</time>
      </trkpt>
      <trkpt lat="39.38745" lon="-0.43391">
        <time>2021-01-05 06:36:11</time>
      </trkpt>
      <trkpt lat="39.38762" lon="-0.43403">
        <time>2021-01-05 06:36:14</time>
      </trkpt>
      <trkpt lat="39.38764" lon="-0.43405">
        <time>2021-01-05 06:36:21</time>
      </trkpt>
      <trkpt lat="39.38782" lon="-0.43419">
        <time>2021-01-05 06:36:24</time>
      </trkpt>
      <trkpt lat="39.38784" lon="-0.43421">
        <time>2021-01-05 06:36:31</time>
      </trkpt>
      <trkpt lat="39.38801" lon="-0.43436">
        <time>2021-01-05 06:36:32</time>
      </trkpt>
      <trkpt lat="39.38807" lon="-0.43439">
        <time>2021-01-05 06:36:39</time>
      </trkpt>
      <trkpt lat="39.38823" lon="-0.43453">
        <time>2021-01-05 06:36:40</time>
      </trkpt>
      <trkpt lat="39.38829" lon="-0.43456">
        <time>2021-01-05 06:36:47</time>
      </trkpt>
      <trkpt lat="39.3884" lon="-0.43467">
        <time>2021-01-05 06:36:49</time>
      </trkpt>
      <trkpt lat="39.38845" lon="-0.43471">
        <time>2021-01-05 06:36:56</time>
      </trkpt>
      <trkpt lat="39.38864" lon="-0.43484">
        <time>2021-01-05 06:36:58</time>
      </trkpt>
      <trkpt lat="39.38866" lon="-0.43486">
        <time>2021-01-05 06:37:03</time>
      </trkpt>
      <trkpt lat="39.38878" lon="-0.43497">
        <time>2021-01-05 06:37:05</time>
      </trkpt>
      <trkpt lat="39.38895" lon="-0.43511">
        <time>2021-01-05 06:37:12</time>
      </trkpt>
      <trkpt lat="39.38898" lon="-0.43513">
        <time>2021-01-05 06:37:13</time>
      </trkpt>
      <trkpt lat="39.38916" lon="-0.43527">
        <time>2021-01-05 06:37:19</time>
      </trkpt>
      <trkpt lat="39.38925" lon="-0.43536">
        <time>2021-01-05 06:37:26</time>
      </trkpt>
      <trkpt lat="39.38941" lon="-0.43547">
        <time>2021-01-05 06:37:27</time>
      </trkpt>
      <trkpt lat="39.38949" lon="-0.43553">
        <time>2021-01-05 06:37:34</time>
      </trkpt>
      <trkpt lat="39.38966" lon="-0.43564">
        <time>2021-01-05 06:37:38</time>
      </trkpt>
      <trkpt lat="39.38973" lon="-0.43568">
        <time>2021-01-05 06:37:44</time>
      </trkpt>
      <trkpt lat="39.38981" lon="-0.43575">
        <time>2021-01-05 06:37:47</time>
      </trkpt>
      <trkpt lat="39.3898" lon="-0.43576">
        <time>2021-01-05 06:37:54</time>
      </trkpt>
      <trkpt lat="39.3897" lon="-0.43576">
        <time>2021-01-05 06:37:57</time>
      </trkpt>
      <trkpt lat="39.3895" lon="-0.43578">
        <time>2021-01-05 06:38:02</time>
      </trkpt>
      <trkpt lat="39.38932" lon="-0.43589">
        <time>2021-01-05 06:38:03</time>
      </trkpt>
      <trkpt lat="39.38919" lon="-0.43597">
        <time>2021-01-05 06:38:07</time>
      </trkpt>
      <trkpt lat="39.38902" lon="-0.43609">
        <time>2021-01-05 06:38:13</time>
      </trkpt>
      <trkpt lat="39.38897" lon="-0.43613">
        <time>2021-01-05 06:38:19</time>
      </trkpt>
      <trkpt lat="39.38882" lon="-0.43628">
        <time>2021-01-05 06:38:24</time>
      </trkpt>
      <trkpt lat="39.38864" lon="-0.43641">
        <time>2021-01-05 06:38:31</time>
      </trkpt>
      <trkpt lat="39.38861" lon="-0.43643">
        <time>2021-01-05 06:38:33</time>
      </trkpt>
      <trkpt lat="39.38844" lon="-0.43654">
        <time>2021-01-05 06:38:40</time>
      </trkpt>
      <trkpt lat="39.38836" lon="-0.43658">
        <time>2021-01-05 06:38:47</time>
      </trkpt>
      <trkpt lat="39.38817" lon="-0.43665">
        <time>2021-01-05 06:38:48</time>
      </trkpt>
      <trkpt lat="39.38808" lon="-0.43666">
        <time>2021-01-05 06:38:55</time>
      </trkpt>
      <trkpt lat="39.3879" lon="-0.43677">
        <time>2021-01-05 06:38:58</time>
      </trkpt>
      <trkpt lat="39.38776" lon="-0.43695">
        <time>2021-01-05 06:39:05</time>
      </trkpt>
      <trkpt lat="39.38772" lon="-0.437">
        <time>2021-01-05 06:39:08</time>
      </trkpt>
      <trkpt lat="39.38758" lon="-0.43716">
        <time>2021-01-05 06:39:15</time>
      </trkpt>
      <trkpt lat="39.38755" lon="-0.43717">
        <time>2021-01-05 06:39:22</time>
      </trkpt>
      <trkpt lat="39.38737" lon="-0.43728">
        <time>2021-01-05 06:39:24</time>
      </trkpt>
      <trkpt lat="39.38731" lon="-0.4373">
        <time>2021-01-05 06:39:31</time>
      </trkpt>
      <trkpt lat="39.38712" lon="-0.43738">
        <time>2021-01-05 06:39:32</time>
      </trkpt>
      <trkpt lat="39.38699" lon="-0.43744">
        <time>2021-01-05 06:39:39</time>
      </trkpt>
      <trkpt lat="39.3868" lon="-0.43752">
        <time>2021-01-05 06:39:41</time>
      </trkpt>
      <trkpt lat="39.38675" lon="-0.43754">
        <time>2021-01-05 06:39:48</time>
      </trkpt>
      <trkpt lat="39.38657" lon="-0.43761">
        <time>2021-01-05 06:39:53</time>
      </trkpt>
      <trkpt lat="39.38648" lon="-0.43763">
        <time>2021-01-05 06:40:00</time>
      </trkpt>
      <trkpt lat="39.3863" lon="-0.43766">
        <time>2021-01-05 06:40:02</time>
      </trkpt>
      <trkpt lat="39.38627" lon="-0.43766">
        <time>2021-01-05 06:40:09</time>
      </trkpt>
      <trkpt lat="39.38607" lon="-0.43769">
        <time>2021-01-05 06:40:12</time>
      </trkpt>
      <trkpt lat="39.38601" lon="-0.4377">
        <time>2021-01-05 06:40:19</time>
      </trkpt>
      <trkpt lat="39.38582" lon="-0.43771">
        <time>2021-01-05 06:40:20</time>
      </trkpt>
      <trkpt lat="39.38574" lon="-0.43772">
        <time>2021-01-05 06:40:27</time>
      </trkpt>
      <trkpt lat="39.38555" lon="-0.43774">
        <time>2021-01-05 06:40:29</time>
      </trkpt>
      <trkpt lat="39.38541" lon="-0.43774">
        <time>2021-01-05 06:40:35</time>
      </trkpt>
      <trkpt lat="39.38523" lon="-0.43773">
        <time>2021-01-05 06:40:38</time>
      </trkpt>
      <trkpt lat="39.38505" lon="-0.43774">
        <time>2021-01-05 06:40:44</time>
      </trkpt>
      <trkpt lat="39.38488" lon="-0.43786">
        <time>2021-01-05 06:40:49</time>
      </trkpt>
      <trkpt lat="39.38485" lon="-0.43788">
        <time>2021-01-05 06:40:55</time>
      </trkpt>
      <trkpt lat="39.3847" lon="-0.43804">
        <time>2021-01-05 06:41:01</time>
      </trkpt>
      <trkpt lat="39.38466" lon="-0.43809">
        <time>2021-01-05 06:41:08</time>
      </trkpt>
      <trkpt lat="39.38453" lon="-0.43825">
        <time>2021-01-05 06:41:09</time>
      </trkpt>
      <trkpt lat="39.38451" lon="-0.43828">
        <time>2021-01-05 06:41:16</time>
      </trkpt>
      <trkpt lat="39.38436" lon="-0.43843">
        <time>2021-01-05 06:41:18</time>
      </trkpt>
      <trkpt lat="39.38428" lon="-0.43848">
        <time>2021-01-05 06:41:25</time>
      </trkpt>
      <trkpt lat="39.38409" lon="-0.43859">
        <time>2021-01-05 06:41:26</time>
      </trkpt>
      <trkpt lat="39.38401" lon="-0.43863">
        <time>2021-01-05 06:41:33</time>
      </trkpt>
      <trkpt lat="39.38382" lon="-0.4387">
        <time>2021-01-05 06:41:36</time>
      </trkpt>
      <trkpt lat="39.38377" lon="-0.43872">
        <time>2021-01-05 06:41:43</time>
      </trkpt>
      <trkpt lat="39.38359" lon="-0.43879">
        <time>2021-01-05 06:41:46</time>
      </trkpt>
      <trkpt lat="39.38351" lon="-0.43882">
        <time>2021-01-05 06:41:53</time>
      </trkpt>
      <trkpt lat="39.38332" lon="-0.43888">
        <time>2021-01-05 06:41:55</time>
      </trkpt>
      <trkpt lat="39.38319" lon="-0.43891">
        <time>2021-01-05 06:42:02</time>
      </trkpt>
      <trkpt lat="39.38309" lon="-0.43893">
        <time>2021-01-05 06:42:05</time>
      </trkpt>
      <trkpt lat="39.38302" lon="-0.43895">
        <time>2021-01-05 06:42:12</time>
      </trkpt>
      <trkpt lat="39.38297" lon="-0.43892">
        <time>2021-01-05 06:47:02</time>
      </trkpt>
      <trkpt lat="39.3829" lon="-0.43898">
        <time>2021-01-05 06:47:07</time>
      </trkpt>
      <trkpt lat="39.38274" lon="-0.43911">
        <time>2021-01-05 06:47:12</time>
      </trkpt>
      <trkpt lat="39.38265" lon="-0.43925">
        <time>2021-01-05 06:47:17</time>
      </trkpt>
      <trkpt lat="39.38265" lon="-0.43939">
        <time>2021-01-05 06:47:21</time>
      </trkpt>
      <trkpt lat="39.38272" lon="-0.43965">
        <time>2021-01-05 06:47:28</time>
      </trkpt>
      <trkpt lat="39.38273" lon="-0.43968">
        <time>2021-01-05 06:47:29</time>
      </trkpt>
      <trkpt lat="39.38278" lon="-0.43992">
        <time>2021-01-05 06:47:36</time>
      </trkpt>
      <trkpt lat="39.38283" lon="-0.44015">
        <time>2021-01-05 06:47:43</time>
      </trkpt>
      <trkpt lat="39.38284" lon="-0.44018">
        <time>2021-01-05 06:47:44</time>
      </trkpt>
      <trkpt lat="39.3829" lon="-0.44042">
        <time>2021-01-05 06:47:51</time>
      </trkpt>
      <trkpt lat="39.38295" lon="-0.44064">
        <time>2021-01-05 06:47:57</time>
      </trkpt>
      <trkpt lat="39.38297" lon="-0.44079">
        <time>2021-01-05 06:48:01</time>
      </trkpt>
      <trkpt lat="39.38303" lon="-0.44103">
        <time>2021-01-05 06:48:08</time>
      </trkpt>
      <trkpt lat="39.38307" lon="-0.44117">
        <time>2021-01-05 06:48:12</time>
      </trkpt>
      <trkpt lat="39.38314" lon="-0.44123">
        <time>2021-01-05 06:48:15</time>
      </trkpt>
      <trkpt lat="39.38316" lon="-0.44124">
        <time>2021-01-05 06:48:16</time>
      </trkpt>
      <trkpt lat="39.38334" lon="-0.4412">
        <time>2021-01-05 06:48:22</time>
      </trkpt>
      <trkpt lat="39.38338" lon="-0.44119">
        <time>2021-01-05 06:48:23</time>
      </trkpt>
      <trkpt lat="39.38356" lon="-0.44112">
        <time>2021-01-05 06:48:30</time>
      </trkpt>
      <trkpt lat="39.38374" lon="-0.441">
        <time>2021-01-05 06:48:37</time>
      </trkpt>
      <trkpt lat="39.38376" lon="-0.44098">
        <time>2021-01-05 06:48:38</time>
      </trkpt>
      <trkpt lat="39.3839" lon="-0.44083">
        <time>2021-01-05 06:48:44</time>
      </trkpt>
      <trkpt lat="39.38395" lon="-0.44079">
        <time>2021-01-05 06:48:46</time>
      </trkpt>
      <trkpt lat="39.38414" lon="-0.44073">
        <time>2021-01-05 06:48:53</time>
      </trkpt>
      <trkpt lat="39.38422" lon="-0.44071">
        <time>2021-01-05 06:48:56</time>
      </trkpt>
      <trkpt lat="39.38441" lon="-0.44066">
        <time>2021-01-05 06:49:02</time>
      </trkpt>
      <trkpt lat="39.38449" lon="-0.44064">
        <time>2021-01-05 06:49:05</time>
      </trkpt>
      <trkpt lat="39.38467" lon="-0.44059">
        <time>2021-01-05 06:49:12</time>
      </trkpt>
      <trkpt lat="39.38469" lon="-0.44058">
        <time>2021-01-05 06:49:13</time>
      </trkpt>
      <trkpt lat="39.3849" lon="-0.44053">
        <time>2021-01-05 06:49:20</time>
      </trkpt>
      <trkpt lat="39.38495" lon="-0.44054">
        <time>2021-01-05 06:49:22</time>
      </trkpt>
      <trkpt lat="39.38504" lon="-0.44065">
        <time>2021-01-05 06:49:26</time>
      </trkpt>
      <trkpt lat="39.38509" lon="-0.4409">
        <time>2021-01-05 06:49:33</time>
      </trkpt>
      <trkpt lat="39.3851" lon="-0.44094">
        <time>2021-01-05 06:49:34</time>
      </trkpt>
      <trkpt lat="39.38515" lon="-0.4412">
        <time>2021-01-05 06:49:41</time>
      </trkpt>
      <trkpt lat="39.38517" lon="-0.44127">
        <time>2021-01-05 06:49:43</time>
      </trkpt>
      <trkpt lat="39.38528" lon="-0.44145">
        <time>2021-01-05 06:49:50</time>
      </trkpt>
      <trkpt lat="39.38546" lon="-0.44145">
        <time>2021-01-05 06:49:56</time>
      </trkpt>
      <trkpt lat="39.38566" lon="-0.44142">
        <time>2021-01-05 06:50:03</time>
      </trkpt>
      <trkpt lat="39.38575" lon="-0.4414">
        <time>2021-01-05 06:50:06</time>
      </trkpt>
      <trkpt lat="39.38593" lon="-0.44131">
        <time>2021-01-05 06:50:13</time>
      </trkpt>
      <trkpt lat="39.38595" lon="-0.44129">
        <time>2021-01-05 06:50:14</time>
      </trkpt>
      <trkpt lat="39.38608" lon="-0.44112">
        <time>2021-01-05 06:50:20</time>
      </trkpt>
      <trkpt lat="39.38614" lon="-0.44103">
        <time>2021-01-05 06:50:23</time>
      </trkpt>
      <trkpt lat="39.38631" lon="-0.44092">
        <time>2021-01-05 06:50:30</time>
      </trkpt>
      <trkpt lat="39.38642" lon="-0.44102">
        <time>2021-01-05 06:50:35</time>
      </trkpt>
      <trkpt lat="39.38654" lon="-0.44124">
        <time>2021-01-05 06:50:42</time>
      </trkpt>
      <trkpt lat="39.38665" lon="-0.44146">
        <time>2021-01-05 06:50:49</time>
      </trkpt>
      <trkpt lat="39.3867" lon="-0.44156">
        <time>2021-01-05 06:50:52</time>
      </trkpt>
      <trkpt lat="39.3868" lon="-0.44177">
        <time>2021-01-05 06:50:59</time>
      </trkpt>
      <trkpt lat="39.38682" lon="-0.4418">
        <time>2021-01-05 06:51:00</time>
      </trkpt>
      <trkpt lat="39.38692" lon="-0.44202">
        <time>2021-01-05 06:51:07</time>
      </trkpt>
      <trkpt lat="39.38698" lon="-0.44226">
        <time>2021-01-05 06:51:14</time>
      </trkpt>
      <trkpt lat="39.38702" lon="-0.44241">
        <time>2021-01-05 06:51:18</time>
      </trkpt>
      <trkpt lat="39.38709" lon="-0.44265">
        <time>2021-01-05 06:51:25</time>
      </trkpt>
      <trkpt lat="39.38713" lon="-0.44275">
        <time>2021-01-05 06:51:28</time>
      </trkpt>
      <trkpt lat="39.38718" lon="-0.44298">
        <time>2021-01-05 06:51:34</time>
      </trkpt>
      <trkpt lat="39.38718" lon="-0.44305">
        <time>2021-01-05 06:51:36</time>
      </trkpt>
      <trkpt lat="39.38717" lon="-0.44332">
        <time>2021-01-05 06:51:43</time>
      </trkpt>
      <trkpt lat="39.38716" lon="-0.44342">
        <time>2021-01-05 06:51:46</time>
      </trkpt>
      <trkpt lat="39.3871" lon="-0.44366">
        <time>2021-01-05 06:51:53</time>
      </trkpt>
      <trkpt lat="39.38704" lon="-0.4439">
        <time>2021-01-05 06:52:00</time>
      </trkpt>
      <trkpt lat="39.38701" lon="-0.44411">
        <time>2021-01-05 06:52:06</time>
      </trkpt>
      <trkpt lat="39.38695" lon="-0.44435">
        <time>2021-01-05 06:52:13</time>
      </trkpt>
      <trkpt lat="39.38693" lon="-0.44441">
        <time>2021-01-05 06:52:15</time>
      </trkpt>
      <trkpt lat="39.38692" lon="-0.44448">
        <time>2021-01-05 06:52:17</time>
      </trkpt>
      <trkpt lat="39.38687" lon="-0.44473">
        <time>2021-01-05 06:52:24</time>
      </trkpt>
      <trkpt lat="39.38684" lon="-0.44499">
        <time>2021-01-05 06:52:31</time>
      </trkpt>
      <trkpt lat="39.38683" lon="-0.44502">
        <time>2021-01-05 06:52:32</time>
      </trkpt>
      <trkpt lat="39.38681" lon="-0.44528">
        <time>2021-01-05 06:52:39</time>
      </trkpt>
      <trkpt lat="39.3868" lon="-0.44535">
        <time>2021-01-05 06:52:41</time>
      </trkpt>
      <trkpt lat="39.38676" lon="-0.4456">
        <time>2021-01-05 06:52:48</time>
      </trkpt>
      <trkpt lat="39.38675" lon="-0.44563">
        <time>2021-01-05 06:52:49</time>
      </trkpt>
      <trkpt lat="39.38664" lon="-0.44586">
        <time>2021-01-05 06:52:56</time>
      </trkpt>
      <trkpt lat="39.38663" lon="-0.44589">
        <time>2021-01-05 06:52:57</time>
      </trkpt>
      <trkpt lat="39.38654" lon="-0.4461">
        <time>2021-01-05 06:53:03</time>
      </trkpt>
      <trkpt lat="39.38648" lon="-0.44627">
        <time>2021-01-05 06:53:08</time>
      </trkpt>
      <trkpt lat="39.38639" lon="-0.4465">
        <time>2021-01-05 06:53:15</time>
      </trkpt>
      <trkpt lat="39.38634" lon="-0.44663">
        <time>2021-01-05 06:53:19</time>
      </trkpt>
      <trkpt lat="39.38627" lon="-0.44686">
        <time>2021-01-05 06:53:26</time>
      </trkpt>
      <trkpt lat="39.38623" lon="-0.44699">
        <time>2021-01-05 06:53:30</time>
      </trkpt>
      <trkpt lat="39.38613" lon="-0.44709">
        <time>2021-01-05 06:53:35</time>
      </trkpt>
      <trkpt lat="39.38599" lon="-0.44707">
        <time>2021-01-05 06:53:40</time>
      </trkpt>
      <trkpt lat="39.38579" lon="-0.44699">
        <time>2021-01-05 06:53:47</time>
      </trkpt>
      <trkpt lat="39.3857" lon="-0.44697">
        <time>2021-01-05 06:53:50</time>
      </trkpt>
      <trkpt lat="39.38549" lon="-0.44696">
        <time>2021-01-05 06:53:57</time>
      </trkpt>
      <trkpt lat="39.38535" lon="-0.44697">
        <time>2021-01-05 06:54:02</time>
      </trkpt>
      <trkpt lat="39.38516" lon="-0.44698">
        <time>2021-01-05 06:54:09</time>
      </trkpt>
      <trkpt lat="39.38507" lon="-0.44698">
        <time>2021-01-05 06:54:12</time>
      </trkpt>
      <trkpt lat="39.38487" lon="-0.44701">
        <time>2021-01-05 06:54:19</time>
      </trkpt>
      <trkpt lat="39.38477" lon="-0.44702">
        <time>2021-01-05 06:54:23</time>
      </trkpt>
      <trkpt lat="39.38456" lon="-0.44707">
        <time>2021-01-05 06:54:30</time>
      </trkpt>
      <trkpt lat="39.38448" lon="-0.44709">
        <time>2021-01-05 06:54:33</time>
      </trkpt>
      <trkpt lat="39.38429" lon="-0.44709">
        <time>2021-01-05 06:54:39</time>
      </trkpt>
      <trkpt lat="39.38416" lon="-0.44712">
        <time>2021-01-05 06:54:44</time>
      </trkpt>
      <trkpt lat="39.38396" lon="-0.44716">
        <time>2021-01-05 06:54:51</time>
      </trkpt>
      <trkpt lat="39.3839" lon="-0.44716">
        <time>2021-01-05 06:54:53</time>
      </trkpt>
      <trkpt lat="39.38372" lon="-0.44717">
        <time>2021-01-05 06:54:59</time>
      </trkpt>
      <trkpt lat="39.38354" lon="-0.4472">
        <time>2021-01-05 06:55:05</time>
      </trkpt>
      <trkpt lat="39.38334" lon="-0.44725">
        <time>2021-01-05 06:55:12</time>
      </trkpt>
      <trkpt lat="39.38315" lon="-0.44729">
        <time>2021-01-05 06:55:18</time>
      </trkpt>
      <trkpt lat="39.38296" lon="-0.44732">
        <time>2021-01-05 06:55:25</time>
      </trkpt>
      <trkpt lat="39.38294" lon="-0.44732">
        <time>2021-01-05 06:55:26</time>
      </trkpt>
      <trkpt lat="39.38275" lon="-0.44735">
        <time>2021-01-05 06:55:33</time>
      </trkpt>
      <trkpt lat="39.38269" lon="-0.44735">
        <time>2021-01-05 06:55:35</time>
      </trkpt>
      <trkpt lat="39.38249" lon="-0.44738">
        <time>2021-01-05 06:55:42</time>
      </trkpt>
      <trkpt lat="39.38234" lon="-0.4474">
        <time>2021-01-05 06:55:47</time>
      </trkpt>
      <trkpt lat="39.38213" lon="-0.44741">
        <time>2021-01-05 06:55:54</time>
      </trkpt>
      <trkpt lat="39.38197" lon="-0.44743">
        <time>2021-01-05 06:55:59</time>
      </trkpt>
      <trkpt lat="39.38178" lon="-0.44747">
        <time>2021-01-05 06:56:06</time>
      </trkpt>
      <trkpt lat="39.38169" lon="-0.44749">
        <time>2021-01-05 06:56:09</time>
      </trkpt>
      <trkpt lat="39.38151" lon="-0.44752">
        <time>2021-01-05 06:56:16</time>
      </trkpt>
      <trkpt lat="39.38134" lon="-0.44756">
        <time>2021-01-05 06:56:22</time>
      </trkpt>
      <trkpt lat="39.38114" lon="-0.44759">
        <time>2021-01-05 06:56:29</time>
      </trkpt>
      <trkpt lat="39.38105" lon="-0.4476">
        <time>2021-01-05 06:56:32</time>
      </trkpt>
      <trkpt lat="39.38085" lon="-0.44762">
        <time>2021-01-05 06:56:39</time>
      </trkpt>
      <trkpt lat="39.38072" lon="-0.44763">
        <time>2021-01-05 06:56:43</time>
      </trkpt>
      <trkpt lat="39.38052" lon="-0.44767">
        <time>2021-01-05 06:56:50</time>
      </trkpt>
      <trkpt lat="39.38041" lon="-0.44768">
        <time>2021-01-05 06:56:54</time>
      </trkpt>
      <trkpt lat="39.38019" lon="-0.4477">
        <time>2021-01-05 06:57:01</time>
      </trkpt>
      <trkpt lat="39.38013" lon="-0.44771">
        <time>2021-01-05 06:57:03</time>
      </trkpt>
      <trkpt lat="39.37995" lon="-0.44773">
        <time>2021-01-05 06:57:10</time>
      </trkpt>
      <trkpt lat="39.37989" lon="-0.44774">
        <time>2021-01-05 06:57:12</time>
      </trkpt>
      <trkpt lat="39.3797" lon="-0.44775">
        <time>2021-01-05 06:57:19</time>
      </trkpt>
      <trkpt lat="39.37955" lon="-0.44778">
        <time>2021-01-05 06:57:24</time>
      </trkpt>
      <trkpt lat="39.37938" lon="-0.4478">
        <time>2021-01-05 06:57:30</time>
      </trkpt>
      <trkpt lat="39.37932" lon="-0.44782">
        <time>2021-01-05 06:57:32</time>
      </trkpt>
      <trkpt lat="39.37911" lon="-0.44786">
        <time>2021-01-05 06:57:39</time>
      </trkpt>
      <trkpt lat="39.37909" lon="-0.44786">
        <time>2021-01-05 06:57:40</time>
      </trkpt>
      <trkpt lat="39.37889" lon="-0.4479">
        <time>2021-01-05 06:57:47</time>
      </trkpt>
      <trkpt lat="39.37883" lon="-0.44792">
        <time>2021-01-05 06:57:49</time>
      </trkpt>
      <trkpt lat="39.37863" lon="-0.44799">
        <time>2021-01-05 06:57:56</time>
      </trkpt>
      <trkpt lat="39.37854" lon="-0.44801">
        <time>2021-01-05 06:57:59</time>
      </trkpt>
      <trkpt lat="39.37836" lon="-0.44798">
        <time>2021-01-05 06:58:05</time>
      </trkpt>
      <trkpt lat="39.37829" lon="-0.44797">
        <time>2021-01-05 06:58:07</time>
      </trkpt>
      <trkpt lat="39.37811" lon="-0.44792">
        <time>2021-01-05 06:58:13</time>
      </trkpt>
      <trkpt lat="39.37802" lon="-0.4479">
        <time>2021-01-05 06:58:16</time>
      </trkpt>
      <trkpt lat="39.37785" lon="-0.44785">
        <time>2021-01-05 06:58:22</time>
      </trkpt>
      <trkpt lat="39.37767" lon="-0.44778">
        <time>2021-01-05 06:58:28</time>
      </trkpt>
      <trkpt lat="39.37747" lon="-0.44772">
        <time>2021-01-05 06:58:35</time>
      </trkpt>
      <trkpt lat="39.37735" lon="-0.44768">
        <time>2021-01-05 06:58:39</time>
      </trkpt>
      <trkpt lat="39.37717" lon="-0.44761">
        <time>2021-01-05 06:58:45</time>
      </trkpt>
      <trkpt lat="39.37709" lon="-0.44758">
        <time>2021-01-05 06:58:48</time>
      </trkpt>
      <trkpt lat="39.37691" lon="-0.44752">
        <time>2021-01-05 06:58:54</time>
      </trkpt>
      <trkpt lat="39.37682" lon="-0.44748">
        <time>2021-01-05 06:58:57</time>
      </trkpt>
      <trkpt lat="39.37663" lon="-0.44742">
        <time>2021-01-05 06:59:03</time>
      </trkpt>
      <trkpt lat="39.37648" lon="-0.44736">
        <time>2021-01-05 06:59:08</time>
      </trkpt>
      <trkpt lat="39.37629" lon="-0.4473">
        <time>2021-01-05 06:59:14</time>
      </trkpt>
      <trkpt lat="39.37626" lon="-0.4473">
        <time>2021-01-05 06:59:15</time>
      </trkpt>
      <trkpt lat="39.37611" lon="-0.44724">
        <time>2021-01-05 06:59:20</time>
      </trkpt>
      <trkpt lat="39.37593" lon="-0.44717">
        <time>2021-01-05 06:59:26</time>
      </trkpt>
      <trkpt lat="39.37582" lon="-0.44711">
        <time>2021-01-05 06:59:30</time>
      </trkpt>
      <trkpt lat="39.37566" lon="-0.44708">
        <time>2021-01-05 06:59:36</time>
      </trkpt>
      <trkpt lat="39.37566" lon="-0.44719">
        <time>2021-01-05 06:59:39</time>
      </trkpt>
      <trkpt lat="39.37564" lon="-0.44728">
        <time>2021-01-05 06:59:41</time>
      </trkpt>
      <trkpt lat="39.3756" lon="-0.44734">
        <time>2021-01-05 06:59:43</time>
      </trkpt>
      <trkpt lat="39.37544" lon="-0.44751">
        <time>2021-01-05 06:59:49</time>
      </trkpt>
      <trkpt lat="39.37536" lon="-0.44759">
        <time>2021-01-05 06:59:52</time>
      </trkpt>
      <trkpt lat="39.37522" lon="-0.44778">
        <time>2021-01-05 06:59:58</time>
      </trkpt>
      <trkpt lat="39.37516" lon="-0.44786">
        <time>2021-01-05 07:00:01</time>
      </trkpt>
      <trkpt lat="39.37501" lon="-0.44805">
        <time>2021-01-05 07:00:08</time>
      </trkpt>
      <trkpt lat="39.37486" lon="-0.44821">
        <time>2021-01-05 07:00:14</time>
      </trkpt>
      <trkpt lat="39.3747" lon="-0.44835">
        <time>2021-01-05 07:00:20</time>
      </trkpt>
      <trkpt lat="39.37467" lon="-0.44837">
        <time>2021-01-05 07:00:21</time>
      </trkpt>
      <trkpt lat="39.3745" lon="-0.4485">
        <time>2021-01-05 07:00:27</time>
      </trkpt>
      <trkpt lat="39.37438" lon="-0.44857">
        <time>2021-01-05 07:00:31</time>
      </trkpt>
      <trkpt lat="39.3742" lon="-0.44867">
        <time>2021-01-05 07:00:37</time>
      </trkpt>
      <trkpt lat="39.37402" lon="-0.44874">
        <time>2021-01-05 07:00:43</time>
      </trkpt>
      <trkpt lat="39.37382" lon="-0.44879">
        <time>2021-01-05 07:00:50</time>
      </trkpt>
      <trkpt lat="39.37378" lon="-0.4488">
        <time>2021-01-05 07:00:51</time>
      </trkpt>
      <trkpt lat="39.37359" lon="-0.4488">
        <time>2021-01-05 07:00:57</time>
      </trkpt>
      <trkpt lat="39.37347" lon="-0.44881">
        <time>2021-01-05 07:01:01</time>
      </trkpt>
      <trkpt lat="39.37329" lon="-0.44883">
        <time>2021-01-05 07:01:07</time>
      </trkpt>
      <trkpt lat="39.3732" lon="-0.44883">
        <time>2021-01-05 07:01:10</time>
      </trkpt>
      <trkpt lat="39.373" lon="-0.44882">
        <time>2021-01-05 07:01:17</time>
      </trkpt>
      <trkpt lat="39.3729" lon="-0.44882">
        <time>2021-01-05 07:01:20</time>
      </trkpt>
      <trkpt lat="39.3727" lon="-0.44882">
        <time>2021-01-05 07:01:27</time>
      </trkpt>
      <trkpt lat="39.37261" lon="-0.44881">
        <time>2021-01-05 07:01:30</time>
      </trkpt>
      <trkpt lat="39.37242" lon="-0.44881">
        <time>2021-01-05 07:01:36</time>
      </trkpt>
      <trkpt lat="39.37229" lon="-0.44881">
        <time>2021-01-05 07:01:40</time>
      </trkpt>
      <trkpt lat="39.37208" lon="-0.4488">
        <time>2021-01-05 07:01:47</time>
      </trkpt>
      <trkpt lat="39.372" lon="-0.44881">
        <time>2021-01-05 07:01:50</time>
      </trkpt>
      <trkpt lat="39.37181" lon="-0.44881">
        <time>2021-01-05 07:01:56</time>
      </trkpt>
      <trkpt lat="39.3717" lon="-0.44882">
        <time>2021-01-05 07:02:00</time>
      </trkpt>
      <trkpt lat="39.37151" lon="-0.44883">
        <time>2021-01-05 07:02:06</time>
      </trkpt>
      <trkpt lat="39.37139" lon="-0.44884">
        <time>2021-01-05 07:02:10</time>
      </trkpt>
      <trkpt lat="39.37122" lon="-0.44891">
        <time>2021-01-05 07:02:16</time>
      </trkpt>
      <trkpt lat="39.37113" lon="-0.44894">
        <time>2021-01-05 07:02:19</time>
      </trkpt>
      <trkpt lat="39.37094" lon="-0.44901">
        <time>2021-01-05 07:02:25</time>
      </trkpt>
      <trkpt lat="39.37082" lon="-0.44904">
        <time>2021-01-05 07:02:29</time>
      </trkpt>
      <trkpt lat="39.37063" lon="-0.44911">
        <time>2021-01-05 07:02:35</time>
      </trkpt>
      <trkpt lat="39.37045" lon="-0.44918">
        <time>2021-01-05 07:02:41</time>
      </trkpt>
      <trkpt lat="39.37026" lon="-0.44924">
        <time>2021-01-05 07:02:47</time>
      </trkpt>
      <trkpt lat="39.37019" lon="-0.44927">
        <time>2021-01-05 07:02:50</time>
      </trkpt>
      <trkpt lat="39.37002" lon="-0.44934">
        <time>2021-01-05 07:02:56</time>
      </trkpt>
      <trkpt lat="39.36992" lon="-0.44937">
        <time>2021-01-05 07:02:59</time>
      </trkpt>
      <trkpt lat="39.36974" lon="-0.44945">
        <time>2021-01-05 07:03:05</time>
      </trkpt>
      <trkpt lat="39.36965" lon="-0.44947">
        <time>2021-01-05 07:03:08</time>
      </trkpt>
      <trkpt lat="39.36945" lon="-0.44956">
        <time>2021-01-05 07:03:15</time>
      </trkpt>
      <trkpt lat="39.36936" lon="-0.44961">
        <time>2021-01-05 07:03:18</time>
      </trkpt>
      <trkpt lat="39.36917" lon="-0.44964">
        <time>2021-01-05 07:03:24</time>
      </trkpt>
      <trkpt lat="39.36905" lon="-0.44967">
        <time>2021-01-05 07:03:28</time>
      </trkpt>
      <trkpt lat="39.36887" lon="-0.44973">
        <time>2021-01-05 07:03:34</time>
      </trkpt>
      <trkpt lat="39.36882" lon="-0.44975">
        <time>2021-01-05 07:03:36</time>
      </trkpt>
      <trkpt lat="39.36865" lon="-0.44989">
        <time>2021-01-05 07:03:43</time>
      </trkpt>
      <trkpt lat="39.36861" lon="-0.44991">
        <time>2021-01-05 07:03:44</time>
      </trkpt>
      <trkpt lat="39.36844" lon="-0.45002">
        <time>2021-01-05 07:03:50</time>
      </trkpt>
      <trkpt lat="39.36838" lon="-0.45004">
        <time>2021-01-05 07:03:52</time>
      </trkpt>
      <trkpt lat="39.3682" lon="-0.45011">
        <time>2021-01-05 07:03:58</time>
      </trkpt>
      <trkpt lat="39.36801" lon="-0.45016">
        <time>2021-01-05 07:04:04</time>
      </trkpt>
      <trkpt lat="39.36783" lon="-0.45021">
        <time>2021-01-05 07:04:10</time>
      </trkpt>
      <trkpt lat="39.3677" lon="-0.45028">
        <time>2021-01-05 07:04:15</time>
      </trkpt>
      <trkpt lat="39.36753" lon="-0.45036">
        <time>2021-01-05 07:04:21</time>
      </trkpt>
      <trkpt lat="39.36737" lon="-0.4504">
        <time>2021-01-05 07:04:26</time>
      </trkpt>
      <trkpt lat="39.36718" lon="-0.45043">
        <time>2021-01-05 07:04:33</time>
      </trkpt>
      <trkpt lat="39.36712" lon="-0.45044">
        <time>2021-01-05 07:04:35</time>
      </trkpt>
      <trkpt lat="39.36694" lon="-0.45051">
        <time>2021-01-05 07:04:41</time>
      </trkpt>
      <trkpt lat="39.36691" lon="-0.45052">
        <time>2021-01-05 07:04:42</time>
      </trkpt>
      <trkpt lat="39.36676" lon="-0.45065">
        <time>2021-01-05 07:04:48</time>
      </trkpt>
      <trkpt lat="39.36673" lon="-0.4507">
        <time>2021-01-05 07:04:50</time>
      </trkpt>
      <trkpt lat="39.36673" lon="-0.45084">
        <time>2021-01-05 07:04:54</time>
      </trkpt>
      <trkpt lat="39.36682" lon="-0.45103">
        <time>2021-01-05 07:05:00</time>
      </trkpt>
      <trkpt lat="39.36691" lon="-0.45124">
        <time>2021-01-05 07:05:06</time>
      </trkpt>
      <trkpt lat="39.36695" lon="-0.45131">
        <time>2021-01-05 07:05:08</time>
      </trkpt>
      <trkpt lat="39.36704" lon="-0.45153">
        <time>2021-01-05 07:05:14</time>
      </trkpt>
      <trkpt lat="39.36705" lon="-0.45157">
        <time>2021-01-05 07:05:15</time>
      </trkpt>
      <trkpt lat="39.36715" lon="-0.45181">
        <time>2021-01-05 07:05:22</time>
      </trkpt>
      <trkpt lat="39.36718" lon="-0.4519">
        <time>2021-01-05 07:05:25</time>
      </trkpt>
      <trkpt lat="39.36719" lon="-0.45197">
        <time>2021-01-05 07:05:27</time>
      </trkpt>
      <trkpt lat="39.3665" lon="-0.45236">
        <time>2021-01-05 07:05:35</time>
      </trkpt>
      <trkpt lat="39.36643" lon="-0.4524">
        <time>2021-01-05 07:05:42</time>
      </trkpt>
      <trkpt lat="39.36634" lon="-0.45243">
        <time>2021-01-05 07:05:49</time>
      </trkpt>
      <trkpt lat="39.36631" lon="-0.45247">
        <time>2021-01-05 07:05:52</time>
      </trkpt>
      <trkpt lat="39.36615" lon="-0.45253">
        <time>2021-01-05 07:05:53</time>
      </trkpt>
      <trkpt lat="39.36596" lon="-0.45263">
        <time>2021-01-05 07:05:57</time>
      </trkpt>
      <trkpt lat="39.36593" lon="-0.45264">
        <time>2021-01-05 07:06:10</time>
      </trkpt>
      <trkpt lat="39.36576" lon="-0.45272">
        <time>2021-01-05 07:06:15</time>
      </trkpt>
      <trkpt lat="39.3657" lon="-0.45275">
        <time>2021-01-05 07:06:21</time>
      </trkpt>
      <trkpt lat="39.36552" lon="-0.45285">
        <time>2021-01-05 07:06:22</time>
      </trkpt>
      <trkpt lat="39.36549" lon="-0.45286">
        <time>2021-01-05 07:06:28</time>
      </trkpt>
      <trkpt lat="39.36532" lon="-0.45294">
        <time>2021-01-05 07:06:30</time>
      </trkpt>
      <trkpt lat="39.36517" lon="-0.45301">
        <time>2021-01-05 07:06:36</time>
      </trkpt>
      <trkpt lat="39.36499" lon="-0.4531">
        <time>2021-01-05 07:06:37</time>
      </trkpt>
      <trkpt lat="39.36489" lon="-0.45315">
        <time>2021-01-05 07:06:43</time>
      </trkpt>
      <trkpt lat="39.36471" lon="-0.45323">
        <time>2021-01-05 07:06:48</time>
      </trkpt>
      <trkpt lat="39.36465" lon="-0.45325">
        <time>2021-01-05 07:06:54</time>
      </trkpt>
      <trkpt lat="39.36446" lon="-0.45332">
        <time>2021-01-05 07:06:58</time>
      </trkpt>
      <trkpt lat="39.36427" lon="-0.45342">
        <time>2021-01-05 07:07:04</time>
      </trkpt>
      <trkpt lat="39.36409" lon="-0.4535">
        <time>2021-01-05 07:07:06</time>
      </trkpt>
      <trkpt lat="39.36406" lon="-0.45351">
        <time>2021-01-05 07:07:12</time>
      </trkpt>
      <trkpt lat="39.36386" lon="-0.45358">
        <time>2021-01-05 07:07:18</time>
      </trkpt>
      <trkpt lat="39.36377" lon="-0.45362">
        <time>2021-01-05 07:07:24</time>
      </trkpt>
      <trkpt lat="39.36359" lon="-0.4537">
        <time>2021-01-05 07:07:25</time>
      </trkpt>
      <trkpt lat="39.36344" lon="-0.45377">
        <time>2021-01-05 07:07:31</time>
      </trkpt>
      <trkpt lat="39.36325" lon="-0.45389">
        <time>2021-01-05 07:07:34</time>
      </trkpt>
      <trkpt lat="39.36316" lon="-0.45395">
        <time>2021-01-05 07:07:40</time>
      </trkpt>
      <trkpt lat="39.36302" lon="-0.45411">
        <time>2021-01-05 07:07:45</time>
      </trkpt>
      <trkpt lat="39.36295" lon="-0.45419">
        <time>2021-01-05 07:07:52</time>
      </trkpt>
      <trkpt lat="39.36281" lon="-0.45434">
        <time>2021-01-05 07:07:56</time>
      </trkpt>
      <trkpt lat="39.36274" lon="-0.45442">
        <time>2021-01-05 07:08:02</time>
      </trkpt>
      <trkpt lat="39.36259" lon="-0.45456">
        <time>2021-01-05 07:08:05</time>
      </trkpt>
      <trkpt lat="39.36254" lon="-0.45462">
        <time>2021-01-05 07:08:10</time>
      </trkpt>
      <trkpt lat="39.3624" lon="-0.45477">
        <time>2021-01-05 07:08:13</time>
      </trkpt>
      <trkpt lat="39.36237" lon="-0.45484">
        <time>2021-01-05 07:08:19</time>
      </trkpt>
      <trkpt lat="39.36238" lon="-0.45492">
        <time>2021-01-05 07:08:21</time>
      </trkpt>
      <trkpt lat="39.36241" lon="-0.45498">
        <time>2021-01-05 07:08:27</time>
      </trkpt>
      <trkpt lat="39.36257" lon="-0.45516">
        <time>2021-01-05 07:08:29</time>
      </trkpt>
      <trkpt lat="39.36262" lon="-0.45521">
        <time>2021-01-05 07:08:31</time>
      </trkpt>
      <trkpt lat="39.36263" lon="-0.45523">
        <time>2021-01-05 07:08:33</time>
      </trkpt>
      <trkpt lat="39.36259" lon="-0.45525">
        <time>2021-01-05 07:08:39</time>
      </trkpt>
      <trkpt lat="39.36251" lon="-0.45532">
        <time>2021-01-05 07:08:41</time>
      </trkpt>
      <trkpt lat="39.36244" lon="-0.45549">
        <time>2021-01-05 07:08:42</time>
      </trkpt>
      <trkpt lat="39.36242" lon="-0.45553">
        <time>2021-01-05 07:08:44</time>
      </trkpt>
      <trkpt lat="39.36237" lon="-0.45558">
        <time>2021-01-05 07:08:47</time>
      </trkpt>
    </trkseg>
  </trk>
</gpx>
